sensor_id;sensor_type;location;lat;lon;timestamp;P1;durP1;ratioP1;P2;durP2;ratioP2
18471;SDS011;9365;48.258;12.518;2022-07-05T00:02:15;6.960000000000001;;;2.4699999999999998;;
18471;SDS011;9365;48.258;12.518;2022-07-05T00:07:43;3.9899999999999998;;;2.8199999999999994;;
18471;SDS011;9365;48.258;12.518;2022-07-05T00:13:11;6.27;;;2.6800000000000006;;
18471;SDS011;9365;48.258;12.518;2022-07-05T00:18:38;7.070000000000002;;;2.3099999999999996;;
18471;SDS011;9365;48.258;12.518;2022-07-05T00:24:06;4.16;;;2.37;;
18471;SDS011;9365;48.258;12.518;2022-07-05T00:29:34;3.9200000000000004;;;2.22;;
18471;SDS011;9365;48.258;12.518;2022-07-05T00:35:01;4.65;;;2.5700000000000003;;
18471;SDS011;9365;48.258;12.518;2022-07-05T00:40:29;4.05;;;2.48;;
18471;SDS011;9365;48.258;12.518;2022-07-05T00:45:57;3.2399999999999998;;;2.59;;
18471;SDS011;9365;48.258;12.518;2022-07-05T00:51:25;4.45;;;2.65;;
18471;SDS011;9365;48.258;12.518;2022-07-05T00:56:53;5.52;;;2.85;;
18471;SDS011;9365;48.258;12.518;2022-07-05T01:02:20;3.7299999999999995;;;2.7700000000000005;;
18471;SDS011;9365;48.258;12.518;2022-07-05T01:07:48;3.05;;;2.5500000000000007;;
18471;SDS011;9365;48.258;12.518;2022-07-05T01:13:16;2.98;;;2.2399999999999998;;
18471;SDS011;9365;48.258;12.518;2022-07-05T01:18:44;4.279999999999999;;;2.6999999999999997;;
18471;SDS011;9365;48.258;12.518;2022-07-05T01:24:12;5.55;;;2.4200000000000004;;
18471;SDS011;9365;48.258;12.518;2022-07-05T01:29:40;6.719999999999999;;;2.7600000000000002;;
18471;SDS011;9365;48.258;12.518;2022-07-05T01:35:08;7.63;;;2.2399999999999998;;
18471;SDS011;9365;48.258;12.518;2022-07-05T01:40:36;2.55;;;2.1800000000000006;;
18471;SDS011;9365;48.258;12.518;2022-07-05T01:46:04;4.209999999999999;;;2.7;;
18471;SDS011;9365;48.258;12.518;2022-07-05T01:51:33;2.18;;;1.9200000000000004;;
18471;SDS011;9365;48.258;12.518;2022-07-05T01:57:01;3.1700000000000004;;;2.3400000000000003;;
18471;SDS011;9365;48.258;12.518;2022-07-05T02:02:28;2.37;;;2.03;;
18471;SDS011;9365;48.258;12.518;2022-07-05T02:07:56;4.85;;;2.15;;
18471;SDS011;9365;48.258;12.518;2022-07-05T02:13:23;3.31;;;2.3299999999999996;;
18471;SDS011;9365;48.258;12.518;2022-07-05T02:18:51;3.7;;;2.5599999999999996;;
18471;SDS011;9365;48.258;12.518;2022-07-05T02:24:19;5.3999999999999995;;;2.45;;
18471;SDS011;9365;48.258;12.518;2022-07-05T02:29:47;2.7299999999999995;;;2.2299999999999995;;
18471;SDS011;9365;48.258;12.518;2022-07-05T02:35:14;4.51;;;2.5200000000000005;;
18471;SDS011;9365;48.258;12.518;2022-07-05T02:40:42;3.16;;;2.54;;
18471;SDS011;9365;48.258;12.518;2022-07-05T02:46:10;7.540000000000001;;;2.84;;
18471;SDS011;9365;48.258;12.518;2022-07-05T02:51:37;4.3100000000000005;;;2.62;;
18471;SDS011;9365;48.258;12.518;2022-07-05T02:57:04;3.2700000000000005;;;2.5599999999999996;;
18471;SDS011;9365;48.258;12.518;2022-07-05T03:02:32;2.9;;;2.3800000000000003;;
18471;SDS011;9365;48.258;12.518;2022-07-05T03:08:00;5.540000000000001;;;2.59;;
18471;SDS011;9365;48.258;12.518;2022-07-05T03:13:27;2.81;;;2.5799999999999996;;
18471;SDS011;9365;48.258;12.518;2022-07-05T03:18:55;3.0800000000000005;;;2.6800000000000006;;
18471;SDS011;9365;48.258;12.518;2022-07-05T03:24:23;3.17;;;2.7599999999999993;;
18471;SDS011;9365;48.258;12.518;2022-07-05T03:29:51;2.87;;;2.6699999999999995;;
18471;SDS011;9365;48.258;12.518;2022-07-05T03:35:18;3.6399999999999997;;;3.28;;
18471;SDS011;9365;48.258;12.518;2022-07-05T03:40:46;4.989999999999999;;;3.17;;
18471;SDS011;9365;48.258;12.518;2022-07-05T03:46:13;6.959999999999999;;;3.6799999999999997;;
18471;SDS011;9365;48.258;12.518;2022-07-05T03:51:41;6.83;;;3.88;;
18471;SDS011;9365;48.258;12.518;2022-07-05T03:57:08;5.29;;;3.8;;
18471;SDS011;9365;48.258;12.518;2022-07-05T04:02:36;5.17;;;3.56;;
18471;SDS011;9365;48.258;12.518;2022-07-05T04:08:04;5.609999999999999;;;4.1899999999999995;;
18471;SDS011;9365;48.258;12.518;2022-07-05T04:13:32;6.970000000000001;;;4.05;;
18471;SDS011;9365;48.258;12.518;2022-07-05T04:18:59;5.74;;;4.499999999999999;;
18471;SDS011;9365;48.258;12.518;2022-07-05T04:24:27;4.930000000000001;;;3.9299999999999997;;
18471;SDS011;9365;48.258;12.518;2022-07-05T04:29:54;6.1499999999999995;;;4.5200000000000005;;
18471;SDS011;9365;48.258;12.518;2022-07-05T04:35:22;6.4799999999999995;;;4.77;;
18471;SDS011;9365;48.258;12.518;2022-07-05T04:40:49;6.36;;;4.55;;
18471;SDS011;9365;48.258;12.518;2022-07-05T04:46:17;6.83;;;4.340000000000001;;
18471;SDS011;9365;48.258;12.518;2022-07-05T04:51:44;7.589999999999999;;;4.55;;
18471;SDS011;9365;48.258;12.518;2022-07-05T04:57:12;7.029999999999999;;;4.5200000000000005;;
18471;SDS011;9365;48.258;12.518;2022-07-05T05:02:39;5.4799999999999995;;;4.48;;
18471;SDS011;9365;48.258;12.518;2022-07-05T05:08:07;8.34;;;4.71;;
18471;SDS011;9365;48.258;12.518;2022-07-05T05:13:35;6.5;;;4.770000000000001;;
18471;SDS011;9365;48.258;12.518;2022-07-05T05:19:02;7.480000000000001;;;4.390000000000001;;
18471;SDS011;9365;48.258;12.518;2022-07-05T05:24:30;7.510000000000001;;;4.750000000000001;;
18471;SDS011;9365;48.258;12.518;2022-07-05T05:29:57;7.040000000000001;;;4.74;;
18471;SDS011;9365;48.258;12.518;2022-07-05T05:35:25;6.32;;;4.49;;
18471;SDS011;9365;48.258;12.518;2022-07-05T05:40:53;9.9;;;5.069999999999999;;
18471;SDS011;9365;48.258;12.518;2022-07-05T05:46:21;5.92;;;4.7;;
18471;SDS011;9365;48.258;12.518;2022-07-05T05:51:49;4.68;;;4.079999999999999;;
18471;SDS011;9365;48.258;12.518;2022-07-05T05:57:16;5.64;;;4.01;;
18471;SDS011;9365;48.258;12.518;2022-07-05T06:02:44;5.26;;;3.9799999999999995;;
18471;SDS011;9365;48.258;12.518;2022-07-05T06:08:12;4.1899999999999995;;;3.8299999999999996;;
18471;SDS011;9365;48.258;12.518;2022-07-05T06:13:39;6.11;;;3.28;;
18471;SDS011;9365;48.258;12.518;2022-07-05T06:19:07;7.13;;;3.41;;
18471;SDS011;9365;48.258;12.518;2022-07-05T06:24:35;6.3999999999999995;;;3.2299999999999995;;
18471;SDS011;9365;48.258;12.518;2022-07-05T06:30:02;2.83;;;2.6000000000000005;;
18471;SDS011;9365;48.258;12.518;2022-07-05T06:35:30;3.04;;;2.57;;
18471;SDS011;9365;48.258;12.518;2022-07-05T06:40:58;6.470000000000001;;;2.7;;
18471;SDS011;9365;48.258;12.518;2022-07-05T06:46:25;4.5200000000000005;;;2.5100000000000002;;
18471;SDS011;9365;48.258;12.518;2022-07-05T06:51:53;4.92;;;2.28;;
18471;SDS011;9365;48.258;12.518;2022-07-05T06:57:20;2.42;;;1.9400000000000002;;
18471;SDS011;9365;48.258;12.518;2022-07-05T07:02:48;4.7;;;2.45;;
18471;SDS011;9365;48.258;12.518;2022-07-05T07:08:16;3.11;;;2.12;;
18471;SDS011;9365;48.258;12.518;2022-07-05T07:13:43;1.98;;;1.85;;
18471;SDS011;9365;48.258;12.518;2022-07-05T07:19:11;1.81;;;1.6600000000000001;;
18471;SDS011;9365;48.258;12.518;2022-07-05T07:24:38;5.34;;;2.09;;
18471;SDS011;9365;48.258;12.518;2022-07-05T07:30:07;6.74;;;1.83;;
18471;SDS011;9365;48.258;12.518;2022-07-05T07:35:34;2.2699999999999996;;;2.0;;
18471;SDS011;9365;48.258;12.518;2022-07-05T07:41:02;4.39;;;2.3300000000000005;;
18471;SDS011;9365;48.258;12.518;2022-07-05T07:46:30;6.15;;;2.38;;
18471;SDS011;9365;48.258;12.518;2022-07-05T07:51:58;3.9799999999999995;;;2.5700000000000003;;
18471;SDS011;9365;48.258;12.518;2022-07-05T07:57:25;4.48;;;2.27;;
18471;SDS011;9365;48.258;12.518;2022-07-05T08:02:53;2.95;;;2.13;;
18471;SDS011;9365;48.258;12.518;2022-07-05T08:08:21;6.200000000000001;;;2.5700000000000003;;
18471;SDS011;9365;48.258;12.518;2022-07-05T08:13:48;2.3999999999999995;;;1.95;;
18471;SDS011;9365;48.258;12.518;2022-07-05T08:19:16;2.1900000000000004;;;1.8800000000000001;;
18471;SDS011;9365;48.258;12.518;2022-07-05T08:24:44;2.04;;;1.8999999999999997;;
18471;SDS011;9365;48.258;12.518;2022-07-05T08:30:12;3.5700000000000003;;;2.14;;
18471;SDS011;9365;48.258;12.518;2022-07-05T08:35:40;2.0;;;1.85;;
18471;SDS011;9365;48.258;12.518;2022-07-05T08:41:08;2.56;;;1.7899999999999998;;
18471;SDS011;9365;48.258;12.518;2022-07-05T08:46:37;4.210000000000001;;;2.3299999999999996;;
18471;SDS011;9365;48.258;12.518;2022-07-05T08:52:05;2.4800000000000004;;;1.7399999999999998;;
18471;SDS011;9365;48.258;12.518;2022-07-05T08:57:34;2.21;;;1.9200000000000004;;
18471;SDS011;9365;48.258;12.518;2022-07-05T09:03:02;1.95;;;1.8399999999999999;;
18471;SDS011;9365;48.258;12.518;2022-07-05T09:08:30;2.15;;;1.77;;
18471;SDS011;9365;48.258;12.518;2022-07-05T09:13:57;4.590000000000001;;;2.02;;
18471;SDS011;9365;48.258;12.518;2022-07-05T09:19:25;3.87;;;2.0300000000000002;;
18471;SDS011;9365;48.258;12.518;2022-07-05T09:24:53;2.4099999999999997;;;2.0000000000000004;;
18471;SDS011;9365;48.258;12.518;2022-07-05T09:30:24;4.499999999999999;;;2.09;;
18471;SDS011;9365;48.258;12.518;2022-07-05T09:35:52;5.49;;;2.3299999999999996;;
18471;SDS011;9365;48.258;12.518;2022-07-05T09:41:20;7.019999999999999;;;2.1000000000000005;;
18471;SDS011;9365;48.258;12.518;2022-07-05T09:46:48;3.6;;;2.06;;
18471;SDS011;9365;48.258;12.518;2022-07-05T09:52:25;6.200000000000001;;;2.4;;
18471;SDS011;9365;48.258;12.518;2022-07-05T09:57:53;5.0600000000000005;;;2.29;;
18471;SDS011;9365;48.258;12.518;2022-07-05T10:03:20;4.27;;;2.38;;
18471;SDS011;9365;48.258;12.518;2022-07-05T10:08:48;4.15;;;2.08;;
18471;SDS011;9365;48.258;12.518;2022-07-05T10:14:18;5.32;;;2.7600000000000002;;
18471;SDS011;9365;48.258;12.518;2022-07-05T10:19:46;2.09;;;1.7600000000000002;;
18471;SDS011;9365;48.258;12.518;2022-07-05T10:25:14;5.369999999999999;;;1.8599999999999999;;
18471;SDS011;9365;48.258;12.518;2022-07-05T10:30:42;3.45;;;1.9499999999999997;;
18471;SDS011;9365;48.258;12.518;2022-07-05T10:36:11;2.44;;;1.6199999999999999;;
18471;SDS011;9365;48.258;12.518;2022-07-05T10:41:39;1.94;;;1.4899999999999998;;
18471;SDS011;9365;48.258;12.518;2022-07-05T10:47:08;5.119999999999999;;;1.8800000000000001;;
18471;SDS011;9365;48.258;12.518;2022-07-05T10:52:36;4.18;;;1.59;;
18471;SDS011;9365;48.258;12.518;2022-07-05T10:58:19;5.81;;;1.75;;
18471;SDS011;9365;48.258;12.518;2022-07-05T11:03:48;5.91;;;1.48;;
18471;SDS011;9365;48.258;12.518;2022-07-05T11:09:17;3.7299999999999995;;;1.56;;
18471;SDS011;9365;48.258;12.518;2022-07-05T11:14:46;2.06;;;1.54;;
18471;SDS011;9365;48.258;12.518;2022-07-05T11:20:14;2.95;;;1.69;;
18471;SDS011;9365;48.258;12.518;2022-07-05T11:25:43;1.44;;;1.3200000000000003;;
18471;SDS011;9365;48.258;12.518;2022-07-05T11:31:12;3.37;;;1.1800000000000002;;
18471;SDS011;9365;48.258;12.518;2022-07-05T11:36:40;2.0300000000000002;;;1.2900000000000003;;
18471;SDS011;9365;48.258;12.518;2022-07-05T11:42:08;3.0699999999999994;;;1.29;;
18471;SDS011;9365;48.258;12.518;2022-07-05T11:47:36;4.41;;;1.4;;
18471;SDS011;9365;48.258;12.518;2022-07-05T11:53:03;2.3999999999999995;;;1.0899999999999999;;
18471;SDS011;9365;48.258;12.518;2022-07-05T11:58:31;2.35;;;1.13;;
18471;SDS011;9365;48.258;12.518;2022-07-05T12:03:58;3.3300000000000005;;;1.31;;
18471;SDS011;9365;48.258;12.518;2022-07-05T12:09:26;1.32;;;1.19;;
18471;SDS011;9365;48.258;12.518;2022-07-05T12:14:54;3.3199999999999994;;;1.29;;
18471;SDS011;9365;48.258;12.518;2022-07-05T12:20:23;3.18;;;0.9800000000000001;;
18471;SDS011;9365;48.258;12.518;2022-07-05T12:25:50;1.2;;;1.08;;
18471;SDS011;9365;48.258;12.518;2022-07-05T12:31:19;3.3;;;1.1099999999999999;;
18471;SDS011;9365;48.258;12.518;2022-07-05T12:36:46;3.11;;;1.22;;
18471;SDS011;9365;48.258;12.518;2022-07-05T12:42:29;1.95;;;0.99;;
18471;SDS011;9365;48.258;12.518;2022-07-05T12:47:57;2.05;;;0.95;;
18471;SDS011;9365;48.258;12.518;2022-07-05T12:53:25;1.18;;;0.8699999999999999;;
18471;SDS011;9365;48.258;12.518;2022-07-05T12:58:54;1.92;;;0.9199999999999999;;
18471;SDS011;9365;48.258;12.518;2022-07-05T13:04:22;5.739999999999999;;;1.29;;
18471;SDS011;9365;48.258;12.518;2022-07-05T13:09:50;2.02;;;0.9;;
18471;SDS011;9365;48.258;12.518;2022-07-05T13:15:17;1.41;;;0.9800000000000001;;
18471;SDS011;9365;48.258;12.518;2022-07-05T13:20:45;1.83;;;1.0499999999999998;;
18471;SDS011;9365;48.258;12.518;2022-07-05T13:26:13;1.1400000000000001;;;0.8800000000000001;;
18471;SDS011;9365;48.258;12.518;2022-07-05T13:31:40;1.45;;;1.1;;
18471;SDS011;9365;48.258;12.518;2022-07-05T13:37:08;2.94;;;0.8300000000000001;;
18471;SDS011;9365;48.258;12.518;2022-07-05T13:42:36;1.9900000000000002;;;1.01;;
18471;SDS011;9365;48.258;12.518;2022-07-05T13:48:04;0.72;;;0.72;;
18471;SDS011;9365;48.258;12.518;2022-07-05T13:53:31;3.1900000000000004;;;1.0399999999999998;;
18471;SDS011;9365;48.258;12.518;2022-07-05T13:58:59;5.27;;;0.99;;
18471;SDS011;9365;48.258;12.518;2022-07-05T14:04:27;1.78;;;1.08;;
18471;SDS011;9365;48.258;12.518;2022-07-05T14:09:54;0.9100000000000001;;;0.9100000000000001;;
18471;SDS011;9365;48.258;12.518;2022-07-05T14:15:22;2.11;;;1.19;;
18471;SDS011;9365;48.258;12.518;2022-07-05T14:20:49;2.17;;;1.06;;
18471;SDS011;9365;48.258;12.518;2022-07-05T14:26:17;2.28;;;1.3399999999999999;;
18471;SDS011;9365;48.258;12.518;2022-07-05T14:31:45;0.97;;;0.96;;
18471;SDS011;9365;48.258;12.518;2022-07-05T14:37:12;2.46;;;0.9799999999999999;;
18471;SDS011;9365;48.258;12.518;2022-07-05T14:42:40;1.4500000000000002;;;0.9800000000000001;;
18471;SDS011;9365;48.258;12.518;2022-07-05T14:48:07;6.26;;;1.14;;
18471;SDS011;9365;48.258;12.518;2022-07-05T14:53:35;5.08;;;1.28;;
18471;SDS011;9365;48.258;12.518;2022-07-05T14:59:03;2.1599999999999997;;;0.9200000000000002;;
18471;SDS011;9365;48.258;12.518;2022-07-05T15:04:30;3.1599999999999997;;;0.9400000000000001;;
18471;SDS011;9365;48.258;12.518;2022-07-05T15:09:58;2.68;;;0.9800000000000001;;
18471;SDS011;9365;48.258;12.518;2022-07-05T15:15:26;2.25;;;0.9800000000000001;;
18471;SDS011;9365;48.258;12.518;2022-07-05T15:20:53;1.1700000000000002;;;0.8100000000000002;;
18471;SDS011;9365;48.258;12.518;2022-07-05T15:26:21;0.99;;;0.95;;
18471;SDS011;9365;48.258;12.518;2022-07-05T15:31:48;2.1399999999999997;;;0.9400000000000001;;
18471;SDS011;9365;48.258;12.518;2022-07-05T15:37:16;2.5100000000000002;;;0.8;;
18471;SDS011;9365;48.258;12.518;2022-07-05T15:42:44;2.75;;;1.02;;
18471;SDS011;9365;48.258;12.518;2022-07-05T15:48:11;0.93;;;0.8500000000000002;;
18471;SDS011;9365;48.258;12.518;2022-07-05T15:53:39;1.26;;;0.9800000000000001;;
18471;SDS011;9365;48.258;12.518;2022-07-05T15:59:07;2.76;;;1.02;;
18471;SDS011;9365;48.258;12.518;2022-07-05T16:04:34;1.33;;;0.93;;
18471;SDS011;9365;48.258;12.518;2022-07-05T16:10:02;0.6300000000000001;;;0.62;;
18471;SDS011;9365;48.258;12.518;2022-07-05T16:15:30;3.12;;;1.4500000000000002;;
18471;SDS011;9365;48.258;12.518;2022-07-05T16:20:57;2.15;;;0.96;;
18471;SDS011;9365;48.258;12.518;2022-07-05T16:26:25;1.05;;;0.9700000000000001;;
18471;SDS011;9365;48.258;12.518;2022-07-05T16:31:53;1.4000000000000001;;;0.8;;
18471;SDS011;9365;48.258;12.518;2022-07-05T16:37:20;3.4299999999999997;;;0.85;;
18471;SDS011;9365;48.258;12.518;2022-07-05T16:42:48;0.9000000000000001;;;0.9000000000000001;;
18471;SDS011;9365;48.258;12.518;2022-07-05T16:48:16;1.3400000000000003;;;1.0299999999999998;;
18471;SDS011;9365;48.258;12.518;2022-07-05T16:53:44;0.7000000000000001;;;0.65;;
18471;SDS011;9365;48.258;12.518;2022-07-05T16:59:12;3.04;;;0.8300000000000001;;
18471;SDS011;9365;48.258;12.518;2022-07-05T17:04:40;1.1;;;0.8;;
18471;SDS011;9365;48.258;12.518;2022-07-05T17:10:08;2.5;;;0.9800000000000001;;
18471;SDS011;9365;48.258;12.518;2022-07-05T17:15:36;1.9799999999999998;;;0.7;;
18471;SDS011;9365;48.258;12.518;2022-07-05T17:21:04;1.5299999999999998;;;1.11;;
18471;SDS011;9365;48.258;12.518;2022-07-05T17:26:32;0.77;;;0.76;;
18471;SDS011;9365;48.258;12.518;2022-07-05T17:31:59;2.52;;;0.7699999999999999;;
18471;SDS011;9365;48.258;12.518;2022-07-05T17:37:27;0.8400000000000001;;;0.8;;
18471;SDS011;9365;48.258;12.518;2022-07-05T17:42:54;0.96;;;0.8700000000000001;;
18471;SDS011;9365;48.258;12.518;2022-07-05T17:48:22;0.99;;;0.7699999999999999;;
18471;SDS011;9365;48.258;12.518;2022-07-05T17:53:49;4.05;;;0.8700000000000001;;
18471;SDS011;9365;48.258;12.518;2022-07-05T17:59:17;1.4999999999999998;;;0.79;;
18471;SDS011;9365;48.258;12.518;2022-07-05T18:04:45;1.7099999999999997;;;0.7699999999999999;;
18471;SDS011;9365;48.258;12.518;2022-07-05T18:10:12;5.0200000000000005;;;1.02;;
18471;SDS011;9365;48.258;12.518;2022-07-05T18:15:40;1.56;;;0.9100000000000001;;
18471;SDS011;9365;48.258;12.518;2022-07-05T18:21:07;2.05;;;1.34;;
18471;SDS011;9365;48.258;12.518;2022-07-05T18:26:35;3.85;;;0.8700000000000001;;
18471;SDS011;9365;48.258;12.518;2022-07-05T18:32:03;1.4499999999999997;;;0.96;;
18471;SDS011;9365;48.258;12.518;2022-07-05T18:37:30;2.21;;;1.25;;
18471;SDS011;9365;48.258;12.518;2022-07-05T18:42:58;1.13;;;1.02;;
18471;SDS011;9365;48.258;12.518;2022-07-05T18:48:25;1.75;;;1.65;;
18471;SDS011;9365;48.258;12.518;2022-07-05T18:53:53;2.0100000000000002;;;1.58;;
18471;SDS011;9365;48.258;12.518;2022-07-05T18:59:21;2.3400000000000003;;;1.2100000000000002;;
18471;SDS011;9365;48.258;12.518;2022-07-05T19:04:48;1.7299999999999998;;;1.56;;
18471;SDS011;9365;48.258;12.518;2022-07-05T19:10:16;1.9100000000000001;;;1.7600000000000002;;
18471;SDS011;9365;48.258;12.518;2022-07-05T19:15:43;2.8;;;1.6800000000000002;;
18471;SDS011;9365;48.258;12.518;2022-07-05T19:21:11;3.55;;;1.7799999999999998;;
18471;SDS011;9365;48.258;12.518;2022-07-05T19:26:39;3.1399999999999997;;;1.65;;
18471;SDS011;9365;48.258;12.518;2022-07-05T19:32:07;3.6699999999999995;;;1.5899999999999999;;
18471;SDS011;9365;48.258;12.518;2022-07-05T19:37:34;2.1100000000000003;;;1.7100000000000002;;
18471;SDS011;9365;48.258;12.518;2022-07-05T19:43:02;1.9100000000000001;;;1.72;;
18471;SDS011;9365;48.258;12.518;2022-07-05T19:48:29;2.2800000000000002;;;1.5;;
18471;SDS011;9365;48.258;12.518;2022-07-05T19:53:57;3.0900000000000003;;;1.64;;
18471;SDS011;9365;48.258;12.518;2022-07-05T19:59:25;2.37;;;1.54;;
18471;SDS011;9365;48.258;12.518;2022-07-05T20:04:52;4.339999999999999;;;1.61;;
18471;SDS011;9365;48.258;12.518;2022-07-05T20:10:20;3.25;;;2.63;;
18471;SDS011;9365;48.258;12.518;2022-07-05T20:15:48;3.79;;;3.14;;
18471;SDS011;9365;48.258;12.518;2022-07-05T20:21:15;2.45;;;1.8;;
18471;SDS011;9365;48.258;12.518;2022-07-05T20:26:43;2.23;;;1.5699999999999998;;
18471;SDS011;9365;48.258;12.518;2022-07-05T20:32:10;4.029999999999999;;;1.92;;
18471;SDS011;9365;48.258;12.518;2022-07-05T20:37:38;3.1999999999999997;;;2.21;;
18471;SDS011;9365;48.258;12.518;2022-07-05T20:43:06;1.98;;;1.7900000000000003;;
18471;SDS011;9365;48.258;12.518;2022-07-05T20:48:34;2.55;;;1.8599999999999999;;
18471;SDS011;9365;48.258;12.518;2022-07-05T20:54:01;2.48;;;2.01;;
18471;SDS011;9365;48.258;12.518;2022-07-05T20:59:29;3.0300000000000002;;;2.2199999999999998;;
18471;SDS011;9365;48.258;12.518;2022-07-05T21:04:56;3.17;;;1.8;;
18471;SDS011;9365;48.258;12.518;2022-07-05T21:10:24;1.92;;;1.7899999999999998;;
18471;SDS011;9365;48.258;12.518;2022-07-05T21:15:52;3.59;;;1.5499999999999998;;
18471;SDS011;9365;48.258;12.518;2022-07-05T21:21:20;2.64;;;1.78;;
18471;SDS011;9365;48.258;12.518;2022-07-05T21:26:48;1.51;;;1.28;;
18471;SDS011;9365;48.258;12.518;2022-07-05T21:32:15;3.6700000000000004;;;1.3800000000000001;;
18471;SDS011;9365;48.258;12.518;2022-07-05T21:37:43;4.04;;;1.5;;
18471;SDS011;9365;48.258;12.518;2022-07-05T21:43:10;2.0900000000000003;;;1.89;;
18471;SDS011;9365;48.258;12.518;2022-07-05T21:48:38;1.9;;;1.6400000000000001;;
18471;SDS011;9365;48.258;12.518;2022-07-05T21:54:05;1.9;;;1.7299999999999998;;
18471;SDS011;9365;48.258;12.518;2022-07-05T21:59:33;1.92;;;1.78;;
18471;SDS011;9365;48.258;12.518;2022-07-05T22:05:01;3.4;;;2.0799999999999996;;
18471;SDS011;9365;48.258;12.518;2022-07-05T22:10:29;2.0;;;1.8900000000000001;;
18471;SDS011;9365;48.258;12.518;2022-07-05T22:15:56;4.920000000000001;;;1.8299999999999996;;
18471;SDS011;9365;48.258;12.518;2022-07-05T22:21:24;3.9699999999999998;;;2.26;;
18471;SDS011;9365;48.258;12.518;2022-07-05T22:26:51;2.87;;;1.92;;
18471;SDS011;9365;48.258;12.518;2022-07-05T22:32:19;9.270000000000001;;;2.43;;
18471;SDS011;9365;48.258;12.518;2022-07-05T22:37:46;3.11;;;2.3;;
18471;SDS011;9365;48.258;12.518;2022-07-05T22:43:14;4.32;;;2.0;;
18471;SDS011;9365;48.258;12.518;2022-07-05T22:48:42;3.63;;;3.01;;
18471;SDS011;9365;48.258;12.518;2022-07-05T22:54:09;3.6900000000000004;;;2.6399999999999997;;
18471;SDS011;9365;48.258;12.518;2022-07-05T22:59:37;3.8800000000000003;;;2.1599999999999997;;
18471;SDS011;9365;48.258;12.518;2022-07-05T23:05:05;9.069999999999999;;;3.1;;
18471;SDS011;9365;48.258;12.518;2022-07-05T23:10:32;2.1800000000000006;;;2.0799999999999996;;
18471;SDS011;9365;48.258;12.518;2022-07-05T23:16:00;2.4099999999999997;;;2.15;;
18471;SDS011;9365;48.258;12.518;2022-07-05T23:21:27;3.71;;;2.0300000000000002;;
18471;SDS011;9365;48.258;12.518;2022-07-05T23:26:55;3.0900000000000003;;;1.92;;
18471;SDS011;9365;48.258;12.518;2022-07-05T23:32:23;2.0900000000000003;;;1.83;;
18471;SDS011;9365;48.258;12.518;2022-07-05T23:37:50;3.15;;;2.0800000000000005;;
18471;SDS011;9365;48.258;12.518;2022-07-05T23:43:18;3.66;;;1.7099999999999997;;
18471;SDS011;9365;48.258;12.518;2022-07-05T23:48:46;2.69;;;1.6800000000000002;;
18471;SDS011;9365;48.258;12.518;2022-07-05T23:54:13;5.81;;;1.9200000000000004;;
18471;SDS011;9365;48.258;12.518;2022-07-05T23:59:41;2.9299999999999997;;;1.7700000000000002;;
